createdAt,value
2023-02-28T00:00:53.490Z,80.76
2023-02-28T00:02:56.406Z,81.40
2023-02-28T00:05:02.351Z,81.16
2023-02-28T00:07:09.412Z,82.72
2023-02-28T00:09:13.358Z,83.54
2023-02-28T00:11:16.747Z,82.07
2023-02-28T00:13:20.681Z,83.49
2023-02-28T00:15:24.900Z,82.66
2023-02-28T00:17:27.029Z,82.71
2023-02-28T00:19:28.990Z,82.18
2023-02-28T00:21:31.398Z,82.51
2023-02-28T00:23:34.711Z,82.12
2023-02-28T00:25:36.637Z,80.97
2023-02-28T00:27:46.253Z,79.35
2023-02-28T00:29:48.344Z,77.13
2023-02-28T00:31:52.385Z,79.58
2023-02-28T00:33:54.249Z,80.59
2023-02-28T00:36:08.873Z,80.33
2023-02-28T00:38:10.797Z,79.51
2023-02-28T00:40:13.432Z,80.03
2023-02-28T00:42:15.403Z,81.17
2023-02-28T00:44:22.646Z,81.08
2023-02-28T00:46:26.569Z,80.63
2023-02-28T00:48:34.533Z,79.94
2023-02-28T00:50:36.474Z,79.79
2023-02-28T00:52:38.373Z,79.53
2023-02-28T00:54:42.253Z,79.86
2023-02-28T00:56:49.862Z,80.45
2023-02-28T00:58:52.858Z,80.18
2023-02-28T01:00:59.337Z,81.02
2023-02-28T01:03:05.428Z,80.40
2023-02-28T01:05:07.742Z,79.95
2023-02-28T01:07:11.618Z,79.58
2023-02-28T01:09:13.616Z,80.65
2023-02-28T01:11:17.587Z,79.62
2023-02-28T01:13:20.037Z,76.72
2023-02-28T01:15:27.881Z,74.84
2023-02-28T01:17:29.809Z,76.33
2023-02-28T01:19:31.839Z,77.16
2023-02-28T01:21:33.842Z,76.87
2023-02-28T01:23:35.812Z,77.60
2023-02-28T01:25:38.249Z,76.58
2023-02-28T01:27:41.329Z,76.93
2023-02-28T01:29:43.283Z,77.73
2023-02-28T01:31:46.228Z,77.04
2023-02-28T01:33:48.635Z,77.43
2023-02-28T01:35:51.547Z,77.82
2023-02-28T01:37:54.021Z,79.14
2023-02-28T01:39:56.002Z,77.90
2023-02-28T01:41:58.867Z,77.82
2023-02-28T01:44:27.953Z,77.67
2023-02-28T01:46:36.829Z,77.29
2023-02-28T01:48:52.733Z,78.30
2023-02-28T01:51:01.117Z,79.48
2023-02-28T01:53:08.491Z,79.03
2023-02-28T01:55:12.373Z,80.72
2023-02-28T01:57:21.978Z,79.96
2023-02-28T01:59:31.076Z,79.61
2023-02-28T02:01:33.269Z,80.60
2023-02-28T02:03:36.847Z,79.93
2023-02-28T02:05:41.955Z,80.72
2023-02-28T02:07:46.604Z,80.42
2023-02-28T02:09:48.768Z,81.91
2023-02-28T02:11:52.736Z,82.11
2023-02-28T02:14:19.490Z,81.84
2023-02-28T02:16:33.519Z,82.72
2023-02-28T02:18:41.240Z,82.08
2023-02-28T02:21:01.998Z,82.45
2023-02-28T02:23:19.167Z,83.02
2023-02-28T02:25:43.088Z,83.02
2023-02-28T02:28:07.655Z,82.90
2023-02-28T02:30:30.243Z,84.66
2023-02-28T02:33:08.964Z,83.96
2023-02-28T02:35:41.056Z,84.62
2023-02-28T02:37:51.042Z,83.66
2023-02-28T02:40:12.632Z,85.44
2023-02-28T02:43:02.533Z,84.12
2023-02-28T02:45:25.126Z,84.91
2023-02-28T02:47:32.213Z,85.54
2023-02-28T02:49:38.378Z,84.42
2023-02-28T02:51:41.961Z,84.32
2023-02-28T02:54:00.428Z,84.29
2023-02-28T02:56:07.162Z,84.39
2023-02-28T02:58:14.556Z,83.93
2023-02-28T03:00:20.371Z,83.97
2023-02-28T03:02:23.444Z,84.73
2023-02-28T03:04:33.541Z,84.55
2023-02-28T03:06:36.416Z,84.42
2023-02-28T03:08:39.490Z,84.66
2023-02-28T03:10:45.526Z,84.83
2023-02-28T03:13:01.733Z,84.76
2023-02-28T03:15:19.249Z,83.65
2023-02-28T03:17:51.005Z,84.29
2023-02-28T03:19:59.747Z,84.44
2023-02-28T03:22:38.684Z,84.52
2023-02-28T03:25:05.497Z,85.63
2023-02-28T03:27:57.898Z,85.46
2023-02-28T03:30:07.012Z,84.20
2023-02-28T03:32:25.699Z,85.13
2023-02-28T03:34:34.416Z,83.96
2023-02-28T03:36:46.646Z,84.07
2023-02-28T03:38:54.252Z,83.90
2023-02-28T03:41:35.471Z,84.37
2023-02-28T03:43:42.305Z,84.86
2023-02-28T03:45:46.876Z,84.64
2023-02-28T03:48:28.836Z,84.33
2023-02-28T03:50:44.809Z,83.71
2023-02-28T03:53:02.221Z,83.45
2023-02-28T03:55:11.515Z,83.00
2023-02-28T03:57:24.258Z,81.88
2023-02-28T03:59:38.415Z,82.19
2023-02-28T04:01:43.646Z,81.39
2023-02-28T04:03:45.673Z,81.94
2023-02-28T04:05:56.933Z,81.48
2023-02-28T04:08:08.166Z,82.83
2023-02-28T04:10:10.963Z,82.90
2023-02-28T04:12:12.874Z,82.69
2023-02-28T04:14:14.836Z,83.70
2023-02-28T04:16:34.508Z,84.34
2023-02-28T04:18:37.502Z,83.51
2023-02-28T04:20:42.430Z,84.02
2023-02-28T04:22:47.314Z,83.24
2023-02-28T04:24:51.166Z,83.74
2023-02-28T04:26:55.448Z,83.07
2023-02-28T04:28:57.469Z,82.57
2023-02-28T04:31:05.213Z,82.64
2023-02-28T04:33:12.990Z,84.17
2023-02-28T04:35:14.968Z,84.19
2023-02-28T04:37:29.013Z,83.75
2023-02-28T04:39:36.450Z,83.57
2023-02-28T04:41:39.210Z,83.03
2023-02-28T04:43:41.259Z,84.24
2023-02-28T04:45:50.081Z,83.79
2023-02-28T04:47:51.994Z,84.86
2023-02-28T04:49:53.910Z,84.60
2023-02-28T04:52:02.047Z,83.52
2023-02-28T04:54:05.069Z,83.88
2023-02-28T04:56:08.339Z,84.24
2023-02-28T04:58:10.297Z,85.50
2023-02-28T05:00:14.113Z,85.58
2023-02-28T05:02:16.974Z,85.73
2023-02-28T05:04:19.019Z,85.22
2023-02-28T05:06:22.982Z,85.20
2023-02-28T05:08:25.034Z,85.86
2023-02-28T05:10:26.922Z,86.13
2023-02-28T05:12:34.640Z,85.76
2023-02-28T05:14:38.083Z,85.67
2023-02-28T05:16:41.249Z,85.45
2023-02-28T05:18:50.212Z,85.18
2023-02-28T05:20:54.157Z,84.83
2023-02-28T05:23:03.062Z,83.17
2023-02-28T05:25:08.471Z,84.09
2023-02-28T05:27:11.506Z,83.62
2023-02-28T05:29:13.442Z,84.43
2023-02-28T05:31:15.582Z,85.43
2023-02-28T05:33:17.499Z,85.58
2023-02-28T05:35:19.573Z,85.79
2023-02-28T05:37:22.832Z,85.33
2023-02-28T05:39:25.795Z,85.91
2023-02-28T05:41:28.503Z,85.86
2023-02-28T05:43:32.022Z,85.52
2023-02-28T05:45:34.960Z,86.42
2023-02-28T05:47:37.036Z,86.53
2023-02-28T05:49:38.924Z,86.36
2023-02-28T05:51:41.186Z,86.70
2023-02-28T05:53:50.405Z,85.22
2023-02-28T05:55:52.358Z,84.81
2023-02-28T05:57:54.309Z,85.51
2023-02-28T05:59:56.164Z,85.83
2023-02-28T06:01:58.233Z,85.46
2023-02-28T06:04:02.055Z,85.42
2023-02-28T06:06:04.081Z,85.62
2023-02-28T06:08:08.209Z,84.48
2023-02-28T06:10:11.695Z,84.79
2023-02-28T06:12:14.722Z,84.32
2023-02-28T06:14:18.540Z,83.61
2023-02-28T06:16:20.590Z,84.66
2023-02-28T06:18:22.578Z,84.57
2023-02-28T06:20:27.273Z,84.70
2023-02-28T06:22:29.248Z,85.35
2023-02-28T06:24:33.552Z,84.77
2023-02-28T06:26:36.970Z,86.29
2023-02-28T06:28:38.902Z,86.48
2023-02-28T06:30:41.001Z,86.41
2023-02-28T06:32:50.740Z,85.01
2023-02-28T06:34:59.317Z,85.69
2023-02-28T06:37:03.504Z,86.30
2023-02-28T06:39:05.883Z,85.72
2023-02-28T06:41:09.135Z,83.29
2023-02-28T06:43:14.543Z,82.62
2023-02-28T06:45:16.676Z,81.40
2023-02-28T06:47:19.660Z,78.75
2023-02-28T06:49:23.640Z,74.69
2023-02-28T06:51:25.593Z,72.51
2023-02-28T06:53:28.532Z,72.26
2023-02-28T06:55:30.852Z,68.11
2023-02-28T06:57:35.431Z,66.51
2023-02-28T06:59:37.762Z,67.21
2023-02-28T07:01:40.311Z,65.36
2023-02-28T07:03:42.323Z,62.87
2023-02-28T07:05:46.550Z,64.07
2023-02-28T07:07:49.876Z,62.76
2023-02-28T07:09:53.886Z,61.91
2023-02-28T07:11:55.871Z,61.58
2023-02-28T07:13:58.740Z,60.32
2023-02-28T07:16:03.966Z,57.76
2023-02-28T07:18:06.055Z,58.16
2023-02-28T07:20:10.702Z,58.28
2023-02-28T07:22:15.882Z,56.81
2023-02-28T07:24:19.180Z,54.43
2023-02-28T07:26:22.001Z,53.39
2023-02-28T07:28:25.253Z,53.54
2023-02-28T07:30:27.288Z,54.07
2023-02-28T07:32:29.451Z,53.31
2023-02-28T07:34:32.638Z,51.65
2023-02-28T07:36:34.552Z,51.69
2023-02-28T07:38:51.475Z,49.91
2023-02-28T07:40:53.478Z,49.21
2023-02-28T07:42:55.423Z,48.16
2023-02-28T07:44:57.528Z,49.22
2023-02-28T08:13:47.283Z,43.32
2023-02-28T08:15:51.671Z,42.87
2023-02-28T08:17:53.970Z,42.69
2023-02-28T08:20:02.430Z,44.89
2023-02-28T08:22:04.657Z,43.60
2023-02-28T08:24:07.498Z,44.41
2023-02-28T08:26:09.736Z,44.27
2023-02-28T08:28:11.978Z,44.06
2023-02-28T08:30:15.684Z,42.97
2023-02-28T08:32:28.889Z,44.07
2023-02-28T08:34:32.149Z,43.45
2023-02-28T08:36:34.182Z,44.50
2023-02-28T08:38:37.587Z,42.91
2023-02-28T08:40:40.287Z,41.08
2023-02-28T08:42:42.202Z,41.04
2023-02-28T08:44:44.380Z,40.72
2023-02-28T08:46:46.445Z,42.14
2023-02-28T08:48:48.637Z,42.01
2023-02-28T08:51:07.829Z,43.90
2023-02-28T08:53:10.448Z,41.87
2023-02-28T08:55:12.412Z,40.98
2023-02-28T08:57:15.474Z,41.75
2023-02-28T08:59:19.600Z,40.87
2023-02-28T09:01:50.085Z,40.57
2023-02-28T09:03:52.821Z,41.23
2023-02-28T09:06:00.100Z,40.45
2023-02-28T09:08:07.832Z,41.95
2023-02-28T09:10:10.869Z,43.61
2023-02-28T09:12:12.769Z,42.70
2023-02-28T09:14:14.854Z,43.10
2023-02-28T09:16:18.217Z,40.15
2023-02-28T09:18:20.653Z,40.42
2023-02-28T09:20:22.749Z,40.83
2023-02-28T09:22:24.842Z,41.14
2023-02-28T09:24:26.803Z,41.51
2023-02-28T09:26:34.940Z,42.40
2023-02-28T09:28:44.837Z,40.60
2023-02-28T09:30:48.660Z,42.87
2023-02-28T09:32:53.247Z,42.86
2023-02-28T09:34:55.429Z,43.83
2023-02-28T09:36:57.496Z,44.33
2023-02-28T09:38:59.566Z,43.12
2023-02-28T09:41:12.641Z,41.08
2023-02-28T09:43:17.024Z,39.49
2023-02-28T09:45:33.907Z,39.46
2023-02-28T09:47:40.437Z,41.77
2023-02-28T09:49:47.727Z,39.66
2023-02-28T09:52:20.635Z,42.35
2023-02-28T09:54:25.346Z,40.60
2023-02-28T09:56:39.725Z,41.92
2023-02-28T09:58:47.336Z,41.34
2023-02-28T10:01:16.049Z,39.04
2023-02-28T10:03:31.630Z,39.25
2023-02-28T10:05:56.923Z,41.04
2023-02-28T10:08:26.308Z,40.13
2023-02-28T10:10:39.760Z,41.92
2023-02-28T10:12:45.808Z,41.70
2023-02-28T10:14:53.335Z,40.58
2023-02-28T10:17:14.476Z,39.02
2023-02-28T10:19:33.828Z,40.96
2023-02-28T10:21:41.076Z,41.39
2023-02-28T10:23:46.201Z,41.84
2023-02-28T10:26:04.878Z,39.51
2023-02-28T10:28:15.604Z,39.11
2023-02-28T10:30:17.828Z,39.64
2023-02-28T10:32:22.374Z,40.85
2023-02-28T10:34:25.773Z,40.05
2023-02-28T10:36:28.111Z,40.68
2023-02-28T10:38:36.279Z,41.15
2023-02-28T10:40:38.323Z,41.35
2023-02-28T10:42:40.211Z,42.24
2023-02-28T10:44:42.107Z,42.38
2023-02-28T10:46:45.353Z,41.10
2023-02-28T10:49:00.544Z,41.66
2023-02-28T10:51:05.172Z,43.08
2023-02-28T10:53:27.824Z,43.40
2023-02-28T10:55:30.764Z,43.13
2023-02-28T10:57:39.773Z,41.78
2023-02-28T10:59:41.821Z,39.99
2023-02-28T11:01:47.483Z,43.61
2023-02-28T11:03:51.350Z,41.98
2023-02-28T11:05:54.423Z,41.40
2023-02-28T11:08:16.323Z,42.05
2023-02-28T11:10:22.590Z,41.00
2023-02-28T11:12:27.050Z,43.52
2023-02-28T11:14:40.867Z,41.60
2023-02-28T11:16:42.867Z,41.63
2023-02-28T11:18:53.356Z,41.54
2023-02-28T11:20:58.970Z,41.56
2023-02-28T11:23:04.351Z,41.14
2023-02-28T11:25:17.617Z,41.04
2023-02-28T11:27:33.027Z,42.82
2023-02-28T11:29:38.138Z,43.62
2023-02-28T11:31:40.190Z,43.24
2023-02-28T11:33:46.369Z,42.57
2023-02-28T11:35:51.191Z,44.53
2023-02-28T11:37:53.852Z,44.52
2023-02-28T11:39:57.363Z,45.24
2023-02-28T11:42:29.568Z,44.56
2023-02-28T11:44:56.156Z,44.08
2023-02-28T11:47:05.464Z,45.31
2023-02-28T11:49:41.327Z,45.51
2023-02-28T11:51:59.060Z,46.10
2023-02-28T11:54:24.083Z,45.62
2023-02-28T11:56:41.053Z,46.65
2023-02-28T11:58:54.698Z,46.03
2023-02-28T12:01:05.600Z,45.22
2023-02-28T12:03:11.592Z,44.67
2023-02-28T12:05:27.288Z,45.19
2023-02-28T12:07:52.204Z,44.80
2023-02-28T12:10:21.670Z,46.38
2023-02-28T12:13:31.086Z,44.97
2023-02-28T12:15:52.452Z,46.60
2023-02-28T12:18:03.185Z,45.98
2023-02-28T12:20:25.029Z,46.13
2023-02-28T12:22:52.901Z,46.29
2023-02-28T12:25:19.821Z,45.07
2023-02-28T12:27:27.188Z,46.31
2023-02-28T12:29:37.326Z,46.25
2023-02-28T12:31:57.870Z,45.93
2023-02-28T12:34:11.077Z,45.51
2023-02-28T12:36:30.622Z,46.22
2023-02-28T12:39:08.576Z,46.09
2023-02-28T12:41:17.960Z,45.86
2023-02-28T12:43:34.011Z,46.10
2023-02-28T12:45:49.765Z,46.83
2023-02-28T12:48:21.572Z,46.81
2023-02-28T12:50:26.662Z,46.64
2023-02-28T12:52:39.067Z,46.70
2023-02-28T12:54:59.671Z,47.61
2023-02-28T12:57:41.165Z,47.48
2023-02-28T12:59:53.448Z,47.41
2023-02-28T13:02:12.464Z,48.06
2023-02-28T13:04:52.983Z,46.85
2023-02-28T13:07:25.797Z,46.84
2023-02-28T13:09:30.762Z,46.39
2023-02-28T13:11:40.063Z,46.05
2023-02-28T13:13:46.704Z,46.77
2023-02-28T13:16:10.986Z,47.33
2023-02-28T13:18:38.397Z,47.28
2023-02-28T13:20:49.446Z,47.44
2023-02-28T13:22:59.060Z,48.00
2023-02-28T13:25:48.339Z,48.72
2023-02-28T13:27:58.018Z,49.01
2023-02-28T13:30:00.760Z,49.04
2023-02-28T13:32:11.938Z,48.99
2023-02-28T13:34:17.124Z,49.04
2023-02-28T13:36:23.031Z,48.72
2023-02-28T13:38:34.245Z,49.21
2023-02-28T13:40:39.047Z,50.30
2023-02-28T13:42:45.598Z,50.25
2023-02-28T13:45:25.886Z,49.14
2023-02-28T13:47:31.810Z,50.07
2023-02-28T13:49:35.614Z,50.27
2023-02-28T13:51:52.473Z,49.74
2023-02-28T13:54:15.093Z,49.81
2023-02-28T13:56:32.856Z,50.47
2023-02-28T13:58:53.411Z,50.36
2023-02-28T14:01:23.481Z,49.65
2023-02-28T14:03:36.217Z,49.63
2023-02-28T14:05:39.972Z,50.21
2023-02-28T14:07:57.149Z,49.18
2023-02-28T14:10:09.745Z,47.98
2023-02-28T14:12:49.013Z,47.94
2023-02-28T14:14:53.073Z,48.20
2023-02-28T14:16:56.345Z,48.34
2023-02-28T14:19:10.930Z,47.91
2023-02-28T14:21:16.171Z,48.45
2023-02-28T14:23:26.106Z,49.45
2023-02-28T14:25:57.249Z,48.60
2023-02-28T14:28:27.554Z,47.66
2023-02-28T14:30:59.565Z,47.67
2023-02-28T14:33:30.309Z,47.21
2023-02-28T14:36:01.323Z,46.75
2023-02-28T14:38:08.381Z,47.88
2023-02-28T14:40:21.632Z,48.66
2023-02-28T14:42:31.300Z,48.54
2023-02-28T14:44:37.733Z,48.59
2023-02-28T14:46:42.889Z,48.92
2023-02-28T14:48:48.297Z,48.70
2023-02-28T14:50:54.685Z,48.90
2023-02-28T14:52:58.889Z,48.46
2023-02-28T14:55:08.412Z,48.45
2023-02-28T14:57:26.350Z,49.60
2023-02-28T14:59:35.705Z,49.19
2023-02-28T15:01:37.920Z,49.34
2023-02-28T15:03:42.045Z,49.74
2023-02-28T15:05:53.772Z,48.94
2023-02-28T15:08:11.888Z,48.88
2023-02-28T15:10:24.184Z,49.56
2023-02-28T15:14:29.431Z,51.02
2023-02-28T15:16:43.139Z,51.26
2023-02-28T15:18:48.614Z,51.34
2023-02-28T15:20:52.223Z,51.65
2023-02-28T15:22:58.769Z,51.24
2023-02-28T15:25:01.220Z,51.54
2023-02-28T15:27:08.779Z,50.89
2023-02-28T15:29:20.428Z,51.67
2023-02-28T15:31:28.483Z,50.83
2023-02-28T15:33:34.900Z,51.50
2023-02-28T15:35:37.089Z,52.32
2023-02-28T15:37:47.413Z,52.08
2023-02-28T15:39:50.750Z,52.98
2023-02-28T15:41:52.838Z,52.29
2023-02-28T15:44:35.388Z,53.29
2023-02-28T15:46:38.677Z,53.78
2023-02-28T15:48:58.181Z,53.11
2023-02-28T15:51:44.571Z,53.36
2023-02-28T15:53:54.547Z,54.46
2023-02-28T15:56:29.615Z,54.43
2023-02-28T15:58:36.419Z,55.00
2023-02-28T16:00:38.408Z,56.03
2023-02-28T16:02:40.901Z,55.61
2023-02-28T16:05:08.001Z,56.13
2023-02-28T16:07:14.128Z,56.47
2023-02-28T16:09:18.082Z,56.60
2023-02-28T16:11:23.504Z,57.23
2023-02-28T16:13:26.696Z,57.78
2023-02-28T16:15:32.497Z,57.60
2023-02-28T16:17:39.325Z,56.62
2023-02-28T16:19:41.388Z,57.51
2023-02-28T16:21:46.997Z,57.50
2023-02-28T16:23:51.069Z,58.00
2023-02-28T16:25:53.371Z,58.12
2023-02-28T16:27:58.658Z,58.19
2023-02-28T16:30:08.783Z,59.24
2023-02-28T16:32:16.559Z,59.47
2023-02-28T16:34:21.109Z,60.06
2023-02-28T16:36:28.928Z,61.01
2023-02-28T16:38:31.005Z,60.19
2023-02-28T16:40:37.840Z,61.25
2023-02-28T16:42:40.531Z,61.99
2023-02-28T16:44:42.917Z,61.78
2023-02-28T16:46:45.218Z,62.07
2023-02-28T16:48:52.792Z,62.76
2023-02-28T16:50:55.281Z,62.70
2023-02-28T16:52:58.622Z,63.00
2023-02-28T16:55:01.324Z,63.23
2023-02-28T16:57:04.047Z,63.31
2023-02-28T16:59:12.480Z,63.02
2023-02-28T17:01:15.712Z,62.22
2023-02-28T17:03:34.148Z,63.42
2023-02-28T17:05:41.168Z,62.93
2023-02-28T17:07:47.809Z,63.13
2023-02-28T17:09:49.957Z,63.38
2023-02-28T17:11:52.458Z,64.95
2023-02-28T17:14:22.359Z,65.33
2023-02-28T17:16:30.773Z,65.00
2023-02-28T17:18:35.070Z,64.59
2023-02-28T17:20:38.312Z,64.71
2023-02-28T17:22:41.657Z,64.95
2023-02-28T17:24:46.914Z,65.04
2023-02-28T17:26:50.908Z,65.76
2023-02-28T17:28:57.175Z,65.49
2023-02-28T17:31:00.570Z,65.60
2023-02-28T17:33:07.423Z,66.47
2023-02-28T17:35:12.572Z,67.13
2023-02-28T17:37:16.958Z,68.30
2023-02-28T17:39:25.555Z,69.03
2023-02-28T17:41:28.150Z,70.50
2023-02-28T17:43:31.021Z,71.35
2023-02-28T17:45:37.089Z,71.40
2023-02-28T17:47:40.420Z,70.88
2023-02-28T17:49:43.398Z,71.55
2023-02-28T17:51:46.462Z,70.71
2023-02-28T17:53:49.265Z,72.98
2023-02-28T17:55:53.480Z,72.37
2023-02-28T17:57:57.563Z,71.81
2023-02-28T18:00:02.249Z,73.92
2023-02-28T18:02:08.506Z,73.21
2023-02-28T18:04:10.647Z,72.30
2023-02-28T18:06:24.463Z,74.38
2023-02-28T18:08:27.315Z,75.01
2023-02-28T18:10:30.126Z,76.24
2023-02-28T18:12:32.576Z,78.12
2023-02-28T18:14:35.120Z,79.30
2023-02-28T18:16:37.606Z,77.59
2023-02-28T18:18:40.466Z,77.20
2023-02-28T18:20:44.042Z,76.89
2023-02-28T18:22:51.518Z,76.58
2023-02-28T18:24:54.066Z,75.88
2023-02-28T18:27:00.187Z,73.63
2023-02-28T18:29:04.553Z,72.95
2023-02-28T18:31:09.159Z,72.39
2023-02-28T18:33:12.623Z,72.50
2023-02-28T18:35:18.545Z,72.23
2023-02-28T18:37:21.456Z,72.95
2023-02-28T18:39:25.245Z,74.30
2023-02-28T18:41:29.584Z,75.43
2023-02-28T18:43:35.185Z,74.83
2023-02-28T18:45:40.666Z,72.72
2023-02-28T18:47:44.554Z,73.72
2023-02-28T18:49:54.313Z,74.74
2023-02-28T18:51:59.209Z,73.82
2023-02-28T18:54:06.507Z,73.24
2023-02-28T18:56:15.213Z,74.25
2023-02-28T18:58:24.504Z,73.91
2023-02-28T19:00:34.748Z,73.18
2023-02-28T19:02:38.348Z,75.96
2023-02-28T19:04:42.491Z,76.06
2023-02-28T19:06:46.188Z,76.08
2023-02-28T19:08:56.122Z,75.34
2023-02-28T19:10:59.298Z,74.43
2023-02-28T19:13:05.412Z,74.65
2023-02-28T19:15:11.920Z,74.65
2023-02-28T19:17:17.399Z,76.30
2023-02-28T19:19:20.268Z,75.77
2023-02-28T19:21:29.687Z,76.78
2023-02-28T19:23:34.664Z,76.12
2023-02-28T19:25:44.029Z,74.70
2023-02-28T19:27:47.857Z,75.52
2023-02-28T19:29:54.672Z,75.73
2023-02-28T19:31:58.068Z,75.18
2023-02-28T19:34:04.933Z,76.01
2023-02-28T19:36:23.303Z,77.61
2023-02-28T19:38:26.225Z,78.38
2023-02-28T19:40:36.265Z,77.52
2023-02-28T19:42:40.812Z,77.87
2023-02-28T19:44:46.254Z,77.55
2023-02-28T19:46:53.974Z,77.56
2023-02-28T19:48:58.500Z,78.87
2023-02-28T19:51:06.434Z,79.91
2023-02-28T19:53:09.207Z,81.41
2023-02-28T19:55:11.981Z,81.99
2023-02-28T19:57:14.692Z,82.64
2023-02-28T19:59:21.829Z,82.31
2023-02-28T20:01:30.217Z,82.59
2023-02-28T20:03:35.099Z,81.76
2023-02-28T20:05:38.740Z,80.69
2023-02-28T20:07:41.903Z,80.00
2023-02-28T20:09:46.352Z,78.63
2023-02-28T20:11:49.823Z,78.15
2023-02-28T20:13:59.943Z,80.09
2023-02-28T20:16:09.885Z,81.31
2023-02-28T20:18:13.843Z,80.71
2023-02-28T20:20:18.245Z,80.52
2023-02-28T20:22:21.240Z,81.02
2023-02-28T20:24:26.626Z,79.92
2023-02-28T20:26:32.536Z,80.76
2023-02-28T20:28:42.592Z,80.66
2023-02-28T20:30:53.533Z,80.34
2023-02-28T20:32:56.709Z,80.03
2023-02-28T20:35:01.429Z,79.81
2023-02-28T20:37:08.251Z,80.10
2023-02-28T20:39:14.278Z,79.49
2023-02-28T20:41:21.813Z,80.11
2023-02-28T20:43:24.518Z,79.47
2023-02-28T20:45:28.566Z,81.61
2023-02-28T20:47:31.569Z,82.08
2023-02-28T20:49:34.513Z,83.86
2023-02-28T20:51:40.284Z,83.59
2023-02-28T20:53:43.721Z,83.75
2023-02-28T20:56:02.173Z,82.82
2023-02-28T20:58:07.741Z,82.96
2023-02-28T21:00:17.068Z,81.19
2023-02-28T21:02:24.693Z,80.71
2023-02-28T21:04:28.744Z,81.30
2023-02-28T21:06:33.886Z,80.75
2023-02-28T21:08:38.873Z,80.34
2023-02-28T21:10:44.541Z,80.02
2023-02-28T21:12:50.628Z,79.75
2023-02-28T21:14:52.735Z,81.55
2023-02-28T21:16:58.546Z,82.91
2023-02-28T21:19:11.813Z,82.65
2023-02-28T21:21:19.094Z,83.17
2023-02-28T21:23:21.419Z,83.14
2023-02-28T21:25:25.130Z,82.77
2023-02-28T21:27:28.117Z,83.66
2023-02-28T21:29:30.407Z,82.98
2023-02-28T21:31:35.085Z,82.54
2023-02-28T21:33:37.360Z,81.56
2023-02-28T21:35:39.419Z,81.87
2023-02-28T21:37:44.304Z,82.44
2023-02-28T21:39:46.670Z,82.13
2023-02-28T21:41:48.621Z,82.98
2023-02-28T21:43:51.532Z,81.97
2023-02-28T21:45:53.598Z,82.00
2023-02-28T21:47:55.581Z,82.06
2023-02-28T21:49:57.736Z,82.71
2023-02-28T21:52:01.905Z,82.96
2023-02-28T21:54:04.205Z,82.56
2023-02-28T21:56:15.248Z,81.24
2023-02-28T21:58:19.296Z,82.10
2023-02-28T22:00:21.924Z,81.72
2023-02-28T22:02:23.991Z,81.58
2023-02-28T22:04:37.463Z,80.86
2023-02-28T22:06:44.185Z,81.75
2023-02-28T22:08:50.355Z,82.90
2023-02-28T22:10:52.264Z,84.83
2023-02-28T22:12:54.560Z,85.01
2023-02-28T22:14:57.305Z,83.12
2023-02-28T22:16:59.765Z,84.18
2023-02-28T22:19:07.640Z,84.01
2023-02-28T22:21:11.776Z,84.10
2023-02-28T22:23:14.766Z,83.13
2023-02-28T22:25:16.863Z,84.56
2023-02-28T22:27:18.822Z,83.64
2023-02-28T22:29:21.282Z,82.69
2023-02-28T22:31:29.786Z,83.01
2023-02-28T22:33:31.779Z,82.46
2023-02-28T22:35:33.715Z,83.40
2023-02-28T22:37:36.336Z,83.48
2023-02-28T22:39:38.340Z,82.20
2023-02-28T22:41:40.753Z,82.71
2023-02-28T22:43:49.623Z,82.36
2023-02-28T22:45:52.624Z,81.82
2023-02-28T22:47:54.655Z,82.19
2023-02-28T22:49:56.634Z,81.60
2023-02-28T22:51:58.727Z,82.84
2023-02-28T22:54:01.129Z,81.71
2023-02-28T22:56:03.199Z,81.81
2023-02-28T22:58:05.322Z,81.58
2023-02-28T23:00:10.128Z,82.50
2023-02-28T23:02:12.107Z,81.67
2023-02-28T23:04:14.159Z,82.78
2023-02-28T23:06:23.139Z,81.67
2023-02-28T23:08:25.131Z,82.05
2023-02-28T23:10:27.054Z,81.28
2023-02-28T23:12:29.865Z,82.13
2023-02-28T23:14:31.922Z,80.69
2023-02-28T23:16:40.223Z,81.23
2023-02-28T23:18:43.264Z,81.55
2023-02-28T23:20:45.230Z,81.44
2023-02-28T23:22:50.806Z,81.48
2023-02-28T23:24:53.477Z,81.49
2023-02-28T23:26:58.267Z,80.68
2023-02-28T23:29:01.404Z,81.56
2023-02-28T23:31:04.790Z,80.99
2023-02-28T23:33:07.166Z,81.60
2023-02-28T23:35:10.917Z,81.62
2023-02-28T23:37:12.883Z,80.78
2023-02-28T23:39:17.560Z,80.89
2023-02-28T23:41:21.003Z,81.05
2023-02-28T23:43:24.388Z,80.65
2023-02-28T23:45:26.542Z,80.65
2023-02-28T23:47:28.743Z,80.43
2023-02-28T23:49:30.731Z,80.57
2023-02-28T23:51:32.652Z,79.62
2023-02-28T23:53:35.868Z,80.91
2023-02-28T23:55:37.794Z,80.22
2023-02-28T23:57:39.816Z,80.09
2023-02-28T23:59:41.713Z,80.53
